This is the latest recevied weather packets stored in our database for station/object EA2BK-11. If no packets are shown the sender has not sent any weather packets the latest 10 day(s).
| Time | Temp. | Humidity | Pressure | Rain* | Wind** | Luminosity | Snow |
|---|---|---|---|---|---|---|---|
| 1777506825 | 15.56° C | 67% | 945 hPa | - | - | - | - |
| 1777505920 | 15.56° C | 67% | 945 hPa | - | - | - | - |
| 1777505014 | 15.56° C | 67% | 945 hPa | - | - | - | - |
| 1777504109 | 15.56° C | 67% | 945 hPa | - | - | - | - |
| 1777503204 | 15.56° C | 66% | 945 hPa | - | - | - | - |
| 1777502299 | 15.56° C | 67% | 945 hPa | - | - | - | - |
| 1777501394 | 15° C | 68% | 946 hPa | - | - | - | - |
| 1777500488 | 16.67° C | 60% | 945 hPa | - | - | - | - |
| 1777499583 | 17.22° C | 58% | 944 hPa | - | - | - | - |
| 1777498678 | 17.22° C | 57% | 944 hPa | - | - | - | - |
| 1777497773 | 17.78° C | 56% | 944 hPa | - | - | - | - |
| 1777496868 | 17.78° C | 55% | 944 hPa | - | - | - | - |
| 1777495963 | 17.78° C | 55% | 944 hPa | - | - | - | - |
| 1777495058 | 17.78° C | 56% | 944 hPa | - | - | - | - |
| 1777494152 | 17.78° C | 56% | 944 hPa | - | - | - | - |
| 1777493247 | 17.78° C | 56% | 943 hPa | - | - | - | - |
| 1777492342 | 17.78° C | 56% | 943 hPa | - | - | - | - |
| 1777491437 | 17.78° C | 57% | 943 hPa | - | - | - | - |
| 1777490531 | 17.78° C | 59% | 942 hPa | - | - | - | - |
| 1777489626 | 17.78° C | 60% | 942 hPa | - | - | - | - |
| 1777488721 | 18.33° C | 59% | 942 hPa | - | - | - | - |
| 1777487816 | 18.89° C | 58% | 942 hPa | - | - | - | - |
| 1777486911 | 18.89° C | 57% | 942 hPa | - | - | - | - |
| 1777486006 | 19.44° C | 57% | 942 hPa | - | - | - | - |
| 1777485101 | 19.44° C | 57% | 941 hPa | - | - | - | - |
* Rain since midnight (hover to see other rain measurements)
** Current wind speed in m/s (hover to see current wind gust speed)